Time;durP1;ratioP1;P1;durP2;ratioP2;P2;SDS_P1;SDS_P2;PMS_P1;PMS_P2;Temp;Humidity;BMP_temperature;BMP_pressure;BME280_temperature;BME280_humidity;BME280_pressure;Samples;Min_cycle;Max_cycle;Signal;HPM_P1;HPM_P2
2022/10/13 00:01:22;;;;;;;30.45;16.48;;;9.20;99.90;;;;;;8260716;28;20061;-78
2022/10/13 00:05:23;;;;;;;30.80;15.80;;;9.40;99.90;;;;;;8259441;28;20026;-78
2022/10/13 00:09:23;;;;;;;25.48;15.63;;;9.70;99.90;;;;;;8259599;28;20108;-79
2022/10/13 00:13:24;;;;;;;35.90;17.60;;;9.80;99.90;;;;;;8259550;28;20113;-78
2022/10/13 00:17:24;;;;;;;29.27;15.88;;;9.80;99.90;;;;;;8259154;28;20065;-77
2022/10/13 00:21:26;;;;;;;29.52;16.08;;;9.80;99.90;;;;;;8259269;28;20057;-79
2022/10/13 00:25:27;;;;;;;34.08;15.48;;;9.80;99.90;;;;;;8259397;28;20088;-78
2022/10/13 00:29:27;;;;;;;23.98;13.93;;;9.90;99.90;;;;;;8258131;28;20509;-78
2022/10/13 00:33:28;;;;;;;26.52;14.18;;;10.00;99.90;;;;;;8259998;28;20405;-80
2022/10/13 00:37:28;;;;;;;22.83;13.52;;;10.00;99.90;;;;;;8259777;28;20019;-78
2022/10/13 00:41:29;;;;;;;20.73;12.70;;;10.20;99.90;;;;;;8260698;28;20034;-78
2022/10/13 00:45:30;;;;;;;18.13;10.88;;;10.20;99.90;;;;;;8260819;28;20426;-78
2022/10/13 00:49:30;;;;;;;20.52;11.55;;;10.30;99.90;;;;;;8265040;28;20047;-78
2022/10/13 00:53:35;;;;;;;21.10;12.30;;;10.20;99.90;;;;;;8266496;28;20049;-78
2022/10/13 00:57:38;;;;;;;28.80;13.77;;;10.20;99.90;;;;;;8266366;28;20529;-78
2022/10/13 01:01:39;;;;;;;30.65;14.20;;;10.20;99.90;;;;;;8261959;28;20030;-78
2022/10/13 01:05:41;;;;;;;24.60;14.13;;;10.10;99.90;;;;;;8264501;28;20407;-78
2022/10/13 01:09:41;;;;;;;27.23;14.18;;;10.20;99.90;;;;;;8265968;28;20085;-78
2022/10/13 01:14:01;;;;;;;26.20;15.20;;;10.20;99.90;;;;;;8264600;28;20026;-78
2022/10/13 01:18:25;;;;;;;21.60;12.57;;;10.20;99.90;;;;;;8261994;28;20014;-78
2022/10/13 01:22:46;;;;;;;20.92;13.15;;;10.20;99.90;;;;;;8260552;28;20445;-78
2022/10/13 01:27:12;;;;;;;22.33;12.32;;;10.20;99.90;;;;;;8265868;28;20022;-78
2022/10/13 01:31:26;;;;;;;18.60;11.63;;;10.20;99.90;;;;;;8264202;28;20066;-79
2022/10/13 01:35:36;;;;;;;23.05;12.40;;;10.20;99.90;;;;;;8259028;28;20058;-78
2022/10/13 01:39:43;;;;;;;;;;;10.10;99.90;;;;;;8265681;28;20399;-78
2022/10/13 01:44:04;;;;;;;21.17;12.63;;;10.20;99.90;;;;;;8264553;28;19964;-78
2022/10/13 01:48:06;;;;;;;23.30;13.15;;;10.10;99.90;;;;;;8265786;28;20105;-78
2022/10/13 01:52:13;;;;;;;24.88;14.23;;;10.20;99.90;;;;;;8265526;28;20367;-79
2022/10/13 01:56:15;;;;;;;27.30;14.73;;;10.20;99.90;;;;;;8264208;28;20045;-78
2022/10/13 02:00:19;;;;;;;25.75;14.43;;;10.20;99.90;;;;;;8265076;28;20857;-78
2022/10/13 02:04:44;;;;;;;25.67;14.27;;;10.20;99.90;;;;;;8260258;28;20038;-78
2022/10/13 02:08:54;;;;;;;28.05;15.48;;;10.30;99.90;;;;;;8262549;28;20026;-78
2022/10/13 02:17:52;;;;;;;51.97;24.80;;;10.50;99.90;;;;;;8253412;28;20061;-78
2022/10/13 02:21:53;;;;;;;56.70;26.48;;;11.00;99.90;;;;;;8252265;28;20038;-78
2022/10/13 02:25:56;;;;;;;45.33;24.23;;;11.10;99.90;;;;;;8261183;28;20394;-78
2022/10/13 02:29:57;;;;;;;51.55;25.52;;;11.20;99.90;;;;;;8260149;28;20069;-79
2022/10/13 02:33:57;;;;;;;26.65;15.50;;;11.20;99.90;;;;;;8260549;28;20015;-78
2022/10/13 02:37:58;;;;;;;17.77;12.48;;;11.20;99.90;;;;;;8262148;28;20089;-78
2022/10/13 02:41:59;;;;;;;22.25;12.50;;;11.40;99.90;;;;;;8260812;28;20037;-78
2022/10/13 02:45:59;;;;;;;20.48;12.45;;;11.30;99.90;;;;;;8260244;28;20022;-78
2022/10/13 02:50:00;;;;;;;21.45;12.68;;;11.40;99.90;;;;;;8833492;22;20054;-91
2022/10/13 02:54:04;;;;;;;23.95;12.90;;;11.20;99.90;;;;;;8275615;28;20034;-91
2022/10/13 02:58:14;;;;;;;22.67;12.43;;;11.20;99.90;;;;;;8265260;28;20044;-91
2022/10/13 03:02:18;;;;;;;27.92;13.73;;;11.00;99.90;;;;;;8264228;28;20026;-91
2022/10/13 03:06:23;;;;;;;31.27;14.57;;;11.10;99.90;;;;;;8263581;28;20054;-91
2022/10/13 03:10:24;;;;;;;31.00;15.77;;;10.90;99.90;;;;;;8284315;23;20145;-79
2022/10/13 03:14:25;;;;;;;29.50;15.70;;;10.90;99.90;;;;;;8259052;28;20115;-78
2022/10/13 03:18:26;;;;;;;34.30;17.42;;;10.90;99.90;;;;;;8258741;28;20088;-78
2022/10/13 03:22:26;;;;;;;34.35;16.35;;;11.20;99.90;;;;;;8235203;28;20052;-78
2022/10/13 03:26:27;;;;;;;27.90;14.98;;;11.30;99.90;;;;;;8258122;28;20441;-78
2022/10/13 03:30:28;;;;;;;23.80;12.52;;;11.20;99.90;;;;;;8249706;28;20042;-78
2022/10/13 03:34:29;;;;;;;26.30;13.57;;;11.50;99.90;;;;;;8245503;28;20019;-79
2022/10/13 03:38:33;;;;;;;22.92;13.70;;;11.40;99.90;;;;;;8236937;28;20026;-79
2022/10/13 03:42:37;;;;;;;25.73;14.82;;;11.40;99.90;;;;;;8248929;28;20026;-78
2022/10/13 03:46:38;;;;;;;24.50;14.98;;;11.40;99.90;;;;;;8248032;28;20031;-78
2022/10/13 03:50:38;;;;;;;23.75;13.80;;;11.40;99.90;;;;;;8244802;28;20481;-78
2022/10/13 03:54:39;;;;;;;23.40;13.40;;;11.40;99.90;;;;;;8237540;28;20026;-78
2022/10/13 03:58:39;;;;;;;27.40;13.80;;;11.50;99.90;;;;;;8236178;28;20081;-79
2022/10/13 04:02:40;;;;;;;21.33;13.02;;;11.30;99.90;;;;;;8241213;28;20042;-79
2022/10/13 04:06:41;;;;;;;20.85;13.15;;;11.40;99.90;;;;;;8243196;28;20034;-78
2022/10/13 04:10:42;;;;;;;23.40;13.60;;;11.20;99.90;;;;;;8244492;28;20034;-78
2022/10/13 04:14:42;;;;;;;37.03;19.73;;;11.20;99.90;;;;;;8239427;28;20077;-78
2022/10/13 04:18:44;;;;;;;42.65;23.10;;;11.60;99.90;;;;;;8245771;28;20082;-78
2022/10/13 04:22:45;;;;;;;43.40;23.35;;;11.60;99.90;;;;;;8251723;28;20022;-78
2022/10/13 04:26:45;;;;;;;43.00;23.45;;;11.60;99.90;;;;;;8243927;28;20026;-78
2022/10/13 04:30:46;;;;;;;37.75;20.67;;;11.60;99.90;;;;;;8251932;28;20495;-78
2022/10/13 04:34:46;;;;;;;34.45;17.25;;;11.60;99.90;;;;;;8270419;28;20018;-78
2022/10/13 04:38:47;;;;;;;26.95;16.27;;;11.60;99.90;;;;;;8252454;28;20102;-78
2022/10/13 04:42:47;;;;;;;33.25;19.00;;;11.80;99.90;;;;;;8260212;28;20080;-78
2022/10/13 04:46:48;;;;;;;39.17;20.35;;;11.70;99.90;;;;;;8249033;28;20031;-78
2022/10/13 04:51:00;;;;;;;42.95;21.70;;;11.60;99.90;;;;;;8251276;28;20022;-78
2022/10/13 04:55:01;;;;;;;47.33;22.10;;;11.60;99.90;;;;;;8254285;28;20015;-78
2022/10/13 04:59:04;;;;;;;41.30;22.45;;;11.80;99.90;;;;;;8242290;28;20030;-78
2022/10/13 05:03:05;;;;;;;40.30;20.85;;;11.90;99.90;;;;;;8249103;28;20019;-78
2022/10/13 05:07:05;;;;;;;39.30;20.52;;;11.90;99.90;;;;;;8245933;28;20046;-78
2022/10/13 05:11:06;;;;;;;36.00;19.88;;;11.90;99.90;;;;;;8260116;28;20748;-77
2022/10/13 05:15:07;;;;;;;45.38;21.13;;;11.90;99.90;;;;;;8249153;28;20030;-78
2022/10/13 05:19:07;;;;;;;38.63;20.88;;;12.00;99.90;;;;;;8249483;28;20038;-78
2022/10/13 05:23:08;;;;;;;35.03;19.23;;;12.10;99.90;;;;;;8247410;28;20026;-77
2022/10/13 05:27:11;;;;;;;34.13;18.80;;;12.10;99.90;;;;;;8248398;28;20092;-78
2022/10/13 05:31:21;;;;;;;34.05;18.75;;;12.20;99.90;;;;;;8247231;28;20057;-78
2022/10/13 05:35:21;;;;;;;32.53;19.55;;;12.10;99.90;;;;;;8238625;28;20073;-77
2022/10/13 05:39:22;;;;;;;37.50;19.65;;;12.10;99.90;;;;;;8252557;28;20430;-78
2022/10/13 05:43:23;;;;;;;34.42;18.70;;;12.10;99.90;;;;;;8240535;28;20019;-79
2022/10/13 05:47:26;;;;;;;32.08;19.17;;;12.00;99.90;;;;;;8248112;28;20026;-78
2022/10/13 05:51:35;;;;;;;32.78;19.63;;;12.00;99.90;;;;;;8238678;28;20030;-79
2022/10/13 05:55:37;;;;;;;36.63;19.75;;;12.00;99.90;;;;;;8246069;28;20487;-78
2022/10/13 05:59:52;;;;;;;35.58;18.08;;;12.00;99.90;;;;;;8268269;28;20110;-77
2022/10/13 06:03:54;;;;;;;33.42;18.48;;;12.30;99.90;;;;;;8246033;28;20034;-78
2022/10/13 06:07:55;;;;;;;30.40;17.63;;;12.40;99.90;;;;;;8247630;28;20479;-78
2022/10/13 06:11:56;;;;;;;34.90;17.73;;;12.40;99.90;;;;;;8270078;28;20038;-78
2022/10/13 06:15:56;;;;;;;31.73;18.38;;;12.40;99.90;;;;;;8247051;28;20462;-77
2022/10/13 06:19:58;;;;;;;32.42;17.13;;;12.40;99.90;;;;;;8242358;28;20029;-78
2022/10/13 06:24:00;;;;;;;30.52;17.23;;;12.70;99.90;;;;;;8233773;28;20105;-77
2022/10/13 06:28:00;;;;;;;34.50;16.38;;;12.60;99.90;;;;;;8246619;28;20041;-78
2022/10/13 06:32:01;;;;;;;28.77;16.77;;;12.50;99.90;;;;;;8266835;28;20482;-79
2022/10/13 06:36:03;;;;;;;31.98;15.93;;;12.50;99.90;;;;;;8234680;28;20019;-78
2022/10/13 06:40:04;;;;;;;29.73;16.58;;;12.80;99.90;;;;;;8242861;28;20150;-77
2022/10/13 06:44:05;;;;;;;36.28;16.67;;;12.70;99.90;;;;;;8245740;28;20490;-78
2022/10/13 06:48:06;;;;;;;29.60;16.60;;;12.60;99.90;;;;;;8246667;28;20030;-78
2022/10/13 06:52:07;;;;;;;30.50;15.38;;;12.60;99.90;;;;;;8234479;28;20506;-78
2022/10/13 06:56:08;;;;;;;29.20;16.23;;;12.90;99.90;;;;;;8237270;28;20120;-79
2022/10/13 07:00:09;;;;;;;32.03;16.13;;;13.30;99.90;;;;;;8241891;28;20022;-78
2022/10/13 07:04:10;;;;;;;30.35;15.50;;;13.50;99.90;;;;;;8249086;28;20026;-78
2022/10/13 07:08:17;;;;;;;;;;;13.70;99.90;;;;;;8410480;28;20395;-78
2022/10/13 07:12:18;;;;;;;;;;;13.80;99.90;;;;;;8422074;28;19981;-77
2022/10/13 07:16:18;;;;;;;24.85;14.07;;;14.20;99.90;;;;;;8403536;28;19908;-78
2022/10/13 07:20:20;;;;;;;21.67;13.45;;;14.30;99.90;;;;;;8402331;28;20020;-77
2022/10/13 07:24:21;;;;;;;24.65;14.07;;;14.30;99.90;;;;;;8403417;28;20044;-78
2022/10/13 07:28:22;;;;;;;28.15;14.00;;;14.10;99.90;;;;;;8394704;28;20012;-77
2022/10/13 07:32:23;;;;;;;24.67;14.45;;;14.10;99.90;;;;;;8402398;28;20032;-78
2022/10/13 07:36:23;;;;;;;25.25;14.52;;;13.90;99.90;;;;;;8402237;28;20116;-77
2022/10/13 07:40:25;;;;;;;27.63;14.25;;;13.90;99.90;;;;;;8402319;28;20024;-78
2022/10/13 07:44:26;;;;;;;24.10;13.60;;;13.70;99.90;;;;;;8401606;28;20033;-77
2022/10/13 07:48:27;;;;;;;26.55;14.10;;;13.90;99.90;;;;;;8402531;28;20078;-78
2022/10/13 07:52:27;;;;;;;30.10;13.55;;;13.90;99.90;;;;;;8401552;28;20024;-78
2022/10/13 07:56:28;;;;;;;26.00;13.68;;;13.90;99.90;;;;;;8400856;28;20024;-77
2022/10/13 08:00:29;;;;;;;27.52;13.60;;;13.90;99.90;;;;;;8396011;28;20415;-78
2022/10/13 08:04:34;;;;;;;29.63;14.07;;;14.20;99.90;;;;;;8395407;28;20017;-78
2022/10/13 08:08:35;;;;;;;22.95;13.48;;;14.40;99.90;;;;;;8401167;28;20330;-78
2022/10/13 08:12:35;;;;;;;26.25;13.10;;;14.80;99.90;;;;;;8400195;28;20021;-78
2022/10/13 08:16:38;;;;;;;25.45;12.60;;;15.00;99.90;;;;;;8394407;28;20484;-79
2022/10/13 08:20:44;;;;;;;20.25;12.85;;;15.00;99.90;;;;;;8374137;28;20028;-79
2022/10/13 08:24:44;;;;;;;21.13;13.23;;;15.20;99.90;;;;;;8377317;28;20029;-80
2022/10/13 08:28:45;;;;;;;22.00;12.60;;;15.20;99.90;;;;;;8369394;28;20082;-79
2022/10/13 08:32:46;;;;;;;20.55;11.10;;;15.20;99.90;;;;;;8378882;28;20021;-79
2022/10/13 08:36:47;;;;;;;20.08;12.52;;;15.60;99.90;;;;;;8377706;28;20068;-80
2022/10/13 08:40:49;;;;;;;21.58;12.50;;;15.60;99.90;;;;;;8381398;28;20396;-80
2022/10/13 08:44:59;;;;;;;26.30;13.77;;;15.70;99.90;;;;;;8375984;28;20036;-79
2022/10/13 08:49:01;;;;;;;23.65;12.52;;;15.90;99.90;;;;;;8382343;28;20045;-80
2022/10/13 08:53:12;;;;;;;24.85;13.70;;;16.30;99.90;;;;;;8378320;28;20013;-80
2022/10/13 08:57:13;;;;;;;25.13;12.75;;;17.10;99.90;;;;;;8373063;28;20108;-80
2022/10/13 09:01:26;;;;;;;23.02;12.73;;;17.40;99.90;;;;;;8377897;28;20293;-80
2022/10/13 09:05:40;;;;;;;21.13;12.25;;;17.50;99.90;;;;;;8382790;28;20111;-79
2022/10/13 09:09:41;;;;;;;23.80;13.43;;;17.50;99.90;;;;;;8373055;28;20060;-78
2022/10/13 09:13:42;;;;;;;22.83;12.50;;;17.40;99.90;;;;;;8376453;28;20039;-78
2022/10/13 09:17:43;;;;;;;20.00;10.82;;;17.60;99.90;;;;;;8377686;28;20025;-77
2022/10/13 09:21:43;;;;;;;20.65;12.32;;;18.10;99.90;;;;;;8389062;28;20039;-78
2022/10/13 09:25:49;;;;;;;20.83;11.90;;;18.10;99.90;;;;;;8375679;28;20670;-78
2022/10/13 09:29:50;;;;;;;17.35;11.13;;;18.20;99.90;;;;;;8375165;28;20017;-78
2022/10/13 09:34:10;;;;;;;28.08;11.55;;;17.80;99.90;;;;;;8376116;28;20504;-78
2022/10/13 09:38:20;;;;;;;15.77;11.02;;;17.90;99.90;;;;;;8374031;28;20068;-78
2022/10/13 09:42:24;;;;;;;24.30;11.30;;;18.00;99.90;;;;;;8381242;28;20036;-77
2022/10/13 09:46:36;;;;;;;17.90;9.95;;;18.20;99.90;;;;;;8375797;28;20025;-78
2022/10/13 09:50:37;;;;;;;18.80;11.43;;;18.10;99.90;;;;;;8368620;28;20020;-78
2022/10/13 09:54:51;;;;;;;23.48;10.75;;;18.10;99.90;;;;;;8380410;28;20029;-77
2022/10/13 09:59:04;;;;;;;18.10;10.80;;;18.20;99.90;;;;;;8375991;28;20025;-78
2022/10/13 10:03:10;;;;;;;16.25;10.13;;;18.60;99.90;;;;;;8375799;28;20056;-78
2022/10/13 10:07:16;;;;;;;18.60;10.27;;;18.90;99.90;;;;;;8375430;28;20162;-78
2022/10/13 10:11:25;;;;;;;19.75;11.18;;;18.60;99.90;;;;;;8375813;28;20017;-78
2022/10/13 10:15:42;;;;;;;22.73;12.18;;;18.90;99.90;;;;;;8375574;28;20017;-77
2022/10/13 10:20:14;;;;;;;17.23;10.85;;;19.10;99.90;;;;;;8372368;28;20445;-78
2022/10/13 10:24:24;;;;;;;17.00;11.60;;;19.30;99.90;;;;;;8372245;28;20441;-78
2022/10/13 10:28:54;;;;;;;23.35;11.93;;;19.60;99.90;;;;;;8370057;28;20163;-78
2022/10/13 10:32:55;;;;;;;15.50;10.95;;;19.50;99.90;;;;;;8378028;28;20029;-78
2022/10/13 10:37:16;;;;;;;15.45;9.93;;;19.40;99.90;;;;;;8375513;28;21873;-78
2022/10/13 10:41:43;;;;;;;17.58;9.73;;;19.20;99.90;;;;;;8351353;28;20027;-78
2022/10/13 10:45:46;;;;;;;19.48;10.65;;;19.70;99.90;;;;;;8349539;28;20547;-79
2022/10/13 10:49:49;;;;;;;15.70;10.35;;;19.70;99.90;;;;;;8370143;28;20036;-78
2022/10/13 10:54:12;;;;;;;18.42;10.60;;;19.50;99.90;;;;;;8375411;28;20400;-78
2022/10/13 10:58:43;;;;;;;16.45;10.52;;;19.20;99.90;;;;;;8368111;28;20029;-78
2022/10/13 11:03:02;;;;;;;20.75;11.35;;;18.90;99.90;;;;;;8368110;28;20025;-78
2022/10/13 11:07:03;;;;;;;17.33;10.05;;;19.00;99.90;;;;;;8364992;28;20035;-78
2022/10/13 11:11:19;;;;;;;15.52;11.15;;;18.80;99.90;;;;;;8364686;28;20016;-78
2022/10/13 11:15:39;;;;;;;16.10;10.18;;;18.90;99.90;;;;;;8358758;28;20489;-78
2022/10/13 11:19:40;;;;;;;17.77;10.30;;;18.80;99.90;;;;;;8365589;28;20025;-77
2022/10/13 11:23:46;;;;;;;16.27;10.43;;;18.50;99.90;;;;;;8345217;28;20127;-78
2022/10/13 11:27:47;;;;;;;20.90;10.50;;;18.40;99.90;;;;;;8368872;28;20028;-77
2022/10/13 11:31:53;;;;;;;16.98;10.80;;;18.30;99.90;;;;;;8371725;28;20507;-78
2022/10/13 11:35:54;;;;;;;16.48;10.10;;;18.30;99.90;;;;;;8359844;28;20047;-77
2022/10/13 11:40:20;;;;;;;18.05;10.85;;;18.60;99.90;;;;;;8366020;28;20104;-77
2022/10/13 11:44:30;;;;;;;20.92;10.85;;;18.70;99.90;;;;;;8335962;28;20030;-78
2022/10/13 11:48:53;;;;;;;19.25;10.65;;;18.90;99.90;;;;;;8375437;28;20021;-78
2022/10/13 11:53:06;;;;;;;17.40;10.98;;;18.60;99.90;;;;;;8358407;28;20025;-78
2022/10/13 11:57:28;;;;;;;20.15;10.48;;;18.40;99.90;;;;;;8371165;28;20462;-78
2022/10/13 12:01:28;;;;;;;22.83;11.07;;;18.40;99.90;;;;;;8370059;28;20028;-78
2022/10/13 12:05:30;;;;;;;20.55;11.65;;;18.40;99.90;;;;;;8356237;28;20036;-78
2022/10/13 12:09:32;;;;;;;20.10;11.95;;;18.30;99.90;;;;;;8358373;28;20449;-78
2022/10/13 12:13:34;;;;;;;23.40;11.57;;;18.20;99.90;;;;;;8363795;28;20472;-78
2022/10/13 12:17:37;;;;;;;19.27;11.57;;;18.50;99.90;;;;;;8366474;28;20078;-78
2022/10/13 12:21:52;;;;;;;16.25;11.13;;;18.60;99.90;;;;;;8373885;28;20064;-79
2022/10/13 12:25:57;;;;;;;18.45;10.90;;;18.80;99.90;;;;;;8367415;28;20063;-79
2022/10/13 12:30:01;;;;;;;21.27;12.32;;;19.00;99.90;;;;;;8372788;28;20107;-78
2022/10/13 12:34:02;;;;;;;21.85;11.40;;;18.80;99.90;;;;;;8382612;28;20025;-79
2022/10/13 12:38:13;;;;;;;22.05;12.90;;;18.70;99.90;;;;;;8383526;28;20039;-78
2022/10/13 12:42:14;;;;;;;24.92;12.63;;;18.50;99.90;;;;;;8384320;28;20480;-78
2022/10/13 12:46:35;;;;;;;20.38;12.10;;;18.50;99.90;;;;;;8384206;28;20036;-79
2022/10/13 12:50:36;;;;;;;23.05;11.98;;;18.20;99.90;;;;;;8371894;28;20025;-78
2022/10/13 12:54:45;;;;;;;20.85;11.85;;;18.20;99.90;;;;;;8365614;28;20025;-77
2022/10/13 12:58:45;;;;;;;22.90;12.43;;;18.10;99.90;;;;;;8365275;28;20455;-78
2022/10/13 13:02:58;;;;;;;16.85;11.57;;;18.10;99.90;;;;;;8371903;28;20162;-78
2022/10/13 13:07:00;;;;;;;18.00;11.48;;;18.20;99.90;;;;;;8375151;28;20040;-78
2022/10/13 13:11:06;;;;;;;21.05;11.30;;;18.20;99.90;;;;;;8377280;28;20523;-79
2022/10/13 13:15:29;;;;;;;21.45;11.98;;;18.10;99.90;;;;;;8372849;28;20024;-78
2022/10/13 13:19:32;;;;;;;17.30;11.07;;;18.10;99.90;;;;;;8374588;28;20021;-79
2022/10/13 13:23:34;;;;;;;22.55;12.50;;;18.10;99.90;;;;;;8376322;28;20044;-78
2022/10/13 13:27:38;;;;;;;21.92;12.13;;;17.90;99.90;;;;;;8377077;28;20028;-78
2022/10/13 13:31:39;;;;;;;19.73;11.30;;;17.90;99.90;;;;;;8367699;28;20017;-78
2022/10/13 13:35:39;;;;;;;18.38;10.77;;;17.80;99.90;;;;;;8384477;28;20124;-77
2022/10/13 13:39:40;;;;;;;15.98;11.13;;;17.80;99.90;;;;;;8371929;28;20029;-78
2022/10/13 13:43:41;;;;;;;19.42;11.07;;;18.00;99.90;;;;;;8375230;28;20059;-78
2022/10/13 13:47:42;;;;;;;21.27;11.20;;;17.90;99.90;;;;;;8374697;28;20060;-79
2022/10/13 13:51:43;;;;;;;21.33;11.98;;;17.90;99.90;;;;;;8373256;28;20021;-78
2022/10/13 13:55:45;;;;;;;19.38;11.35;;;17.70;99.90;;;;;;8380274;28;20115;-79
2022/10/13 13:59:46;;;;;;;17.88;11.13;;;17.70;99.90;;;;;;8370578;28;20040;-78
2022/10/13 14:03:46;;;;;;;17.33;10.23;;;18.20;99.90;;;;;;8380891;28;20129;-78
2022/10/13 14:07:47;;;;;;;16.90;10.43;;;18.80;99.90;;;;;;8370292;28;20056;-79
2022/10/13 14:11:47;;;;;;;16.20;10.57;;;18.50;99.90;;;;;;8375696;28;20052;-78
2022/10/13 14:15:58;;;;;;;21.02;10.55;;;18.60;99.90;;;;;;8366957;28;20021;-78
2022/10/13 14:19:59;;;;;;;18.45;10.40;;;19.00;99.90;;;;;;8350166;28;20112;-79
2022/10/13 14:23:59;;;;;;;18.73;10.27;;;19.10;99.90;;;;;;8357868;28;20018;-78
2022/10/13 14:28:00;;;;;;;18.20;10.90;;;19.20;99.90;;;;;;8366952;28;20044;-78
2022/10/13 14:32:01;;;;;;;35.97;16.60;;;19.00;99.90;;;;;;8381979;28;20499;-78
2022/10/13 14:36:04;;;;;;;20.73;12.90;;;18.30;99.90;;;;;;8384521;28;20040;-80
2022/10/13 14:40:05;;;;;;;18.83;10.88;;;17.80;99.90;;;;;;8393869;28;20028;-80
2022/10/13 14:44:06;;;;;;;15.45;10.35;;;17.50;99.90;;;;;;8379468;28;20043;-80
2022/10/13 14:48:06;;;;;;;15.93;9.80;;;17.20;99.90;;;;;;8394243;28;20024;-78
2022/10/13 14:52:07;;;;;;;18.85;10.98;;;17.30;99.90;;;;;;8400770;28;20027;-79
2022/10/13 14:56:24;;;;;;;17.35;10.43;;;17.20;99.90;;;;;;8389410;28;20020;-79
2022/10/13 15:00:25;;;;;;;19.27;10.27;;;17.00;99.90;;;;;;8391898;28;20160;-85
2022/10/13 15:04:25;;;;;;;17.55;10.40;;;17.00;99.90;;;;;;8378327;28;20037;-85
2022/10/13 15:08:26;;;;;;;17.75;10.13;;;16.80;99.90;;;;;;8352385;28;20036;-86
2022/10/13 15:12:27;;;;;;;21.65;10.40;;;16.80;99.90;;;;;;8375592;28;20023;-85
2022/10/13 15:16:31;;;;;;;20.27;10.88;;;16.60;99.90;;;;;;8357671;28;20030;-86
2022/10/13 15:20:32;;;;;;;18.17;11.30;;;16.60;99.90;;;;;;8351038;28;20029;-82
2022/10/13 15:24:32;;;;;;;18.33;10.55;;;16.30;99.90;;;;;;8354231;28;20388;-85
2022/10/13 15:28:36;;;;;;;17.45;10.95;;;16.30;99.90;;;;;;8365200;28;20056;-84
2022/10/13 15:32:36;;;;;;;21.92;10.82;;;16.10;99.90;;;;;;8361684;28;20074;-83
2022/10/13 15:36:37;;;;;;;20.95;11.10;;;16.00;99.90;;;;;;8373883;28;20090;-83
2022/10/13 15:40:39;;;;;;;19.67;10.50;;;15.80;99.90;;;;;;8387969;28;20029;-84
2022/10/13 15:44:39;;;;;;;17.38;10.48;;;15.70;99.90;;;;;;8371899;28;20052;-83
2022/10/13 15:48:40;;;;;;;20.45;10.82;;;15.70;99.90;;;;;;8374480;28;20040;-84
2022/10/13 15:52:41;;;;;;;17.55;11.05;;;15.50;99.90;;;;;;8371137;28;20047;-83
2022/10/13 15:56:41;;;;;;;18.73;10.52;;;15.50;99.90;;;;;;8378283;28;20028;-84
2022/10/13 16:00:42;;;;;;;19.70;10.98;;;15.40;99.90;;;;;;8383485;28;20644;-84
2022/10/13 16:04:43;;;;;;;18.52;10.82;;;15.10;99.90;;;;;;8375195;28;20033;-84
2022/10/13 16:08:43;;;;;;;18.25;10.90;;;15.10;99.90;;;;;;8369578;28;20056;-83
2022/10/13 16:12:44;;;;;;;20.80;11.57;;;15.00;99.90;;;;;;8375436;28;20039;-83
2022/10/13 16:20:47;;;;;;;21.17;12.55;;;14.70;99.90;;;;;;8269617;28;20139;-82
2022/10/13 16:24:48;;;;;;;28.75;12.82;;;14.50;99.90;;;;;;8281189;28;20532;-85
2022/10/13 16:28:53;;;;;;;19.15;11.90;;;14.60;99.90;;;;;;8276147;28;20019;-84
2022/10/13 16:32:54;;;;;;;23.13;12.55;;;14.40;99.90;;;;;;8252926;28;20019;-85
2022/10/13 16:36:54;;;;;;;20.63;13.18;;;14.40;99.90;;;;;;8259767;28;20101;-85
2022/10/13 16:40:55;;;;;;;19.42;13.05;;;14.20;99.90;;;;;;8282840;28;20042;-84
2022/10/13 16:44:56;;;;;;;23.63;13.82;;;14.10;99.90;;;;;;8264791;28;20462;-83
2022/10/13 16:48:56;;;;;;;21.05;13.50;;;14.00;99.90;;;;;;8270097;28;20314;-84
2022/10/13 16:52:58;;;;;;;23.08;13.30;;;13.90;99.90;;;;;;8277806;28;20049;-85
2022/10/13 16:56:58;;;;;;;24.92;13.63;;;13.80;99.90;;;;;;8282792;28;20022;-85
2022/10/13 17:01:07;;;;;;;21.55;13.20;;;13.80;99.90;;;;;;8271548;28;20034;-85
2022/10/13 17:05:08;;;;;;;21.58;14.13;;;13.70;99.90;;;;;;8265012;28;20029;-85
2022/10/13 17:09:09;;;;;;;27.02;13.98;;;13.50;99.90;;;;;;8274538;28;20104;-85
2022/10/13 17:13:10;;;;;;;22.42;13.15;;;13.40;99.90;;;;;;8270448;28;20035;-85
2022/10/13 17:17:10;;;;;;;24.50;14.50;;;13.40;99.90;;;;;;8260903;28;20036;-85
2022/10/13 17:21:14;;;;;;;22.50;14.07;;;13.50;99.90;;;;;;8274706;28;20030;-85
2022/10/13 17:25:14;;;;;;;27.13;13.65;;;13.40;99.90;;;;;;8267472;28;20042;-85
2022/10/13 17:29:15;;;;;;;26.52;14.23;;;13.40;99.90;;;;;;8254481;28;20072;-84
2022/10/13 17:33:15;;;;;;;23.58;13.60;;;13.40;99.90;;;;;;8253289;28;20026;-85
2022/10/13 17:37:16;;;;;;;24.88;14.10;;;13.30;99.90;;;;;;8276155;28;20026;-85
2022/10/13 17:41:17;;;;;;;23.25;14.18;;;13.20;99.90;;;;;;8260279;28;20041;-81
2022/10/13 17:45:18;;;;;;;22.95;14.68;;;13.10;99.90;;;;;;8253105;28;20104;-82
2022/10/13 17:49:19;;;;;;;22.92;14.30;;;13.10;99.90;;;;;;8240870;28;20025;-82
2022/10/13 17:53:19;;;;;;;23.95;14.30;;;13.00;99.90;;;;;;8271842;28;20022;-82
2022/10/13 17:57:20;;;;;;;21.10;13.57;;;12.90;99.90;;;;;;8270407;28;20026;-82
2022/10/13 18:01:22;;;;;;;21.50;14.73;;;13.00;99.90;;;;;;8260695;28;20546;-82
2022/10/13 18:05:23;;;;;;;22.85;15.00;;;13.00;99.90;;;;;;8243021;28;20112;-81
2022/10/13 18:09:24;;;;;;;22.48;14.45;;;13.10;99.90;;;;;;8247684;28;20721;-81
2022/10/13 18:13:25;;;;;;;28.02;16.50;;;13.10;99.90;;;;;;8243180;28;20072;-81
2022/10/13 18:17:25;;;;;;;25.27;17.30;;;13.00;99.90;;;;;;8252325;28;20032;-81
2022/10/13 18:21:26;;;;;;;30.48;18.88;;;12.90;99.90;;;;;;8258108;28;20053;-81
2022/10/13 18:25:27;;;;;;;29.02;18.90;;;12.90;99.90;;;;;;8246566;28;20101;-81
2022/10/13 18:29:28;;;;;;;34.05;20.52;;;12.70;99.90;;;;;;8235791;28;20147;-81
2022/10/13 18:33:28;;;;;;;35.90;20.23;;;12.80;99.90;;;;;;8256118;28;20031;-82
2022/10/13 18:37:29;;;;;;;32.00;20.90;;;12.70;99.90;;;;;;8237642;28;20454;-81
2022/10/13 18:41:30;;;;;;;31.58;21.60;;;12.80;99.90;;;;;;8244709;28;20488;-81
2022/10/13 18:45:34;;;;;;;36.95;22.77;;;12.70;99.90;;;;;;8245218;28;20027;-81
2022/10/13 18:49:36;;;;;;;34.58;18.15;;;12.90;99.90;;;;;;8256261;28;20509;-81
2022/10/13 18:53:38;;;;;;;25.45;15.13;;;12.90;99.90;;;;;;8262354;28;20454;-81
2022/10/13 18:57:38;;;;;;;26.17;15.27;;;13.10;99.90;;;;;;8257294;28;20026;-81
2022/10/13 19:01:39;;;;;;;25.70;15.15;;;13.00;99.90;;;;;;8251728;28;20052;-81
2022/10/13 19:05:40;;;;;;;30.98;17.13;;;12.80;99.90;;;;;;8267088;28;20073;-81
2022/10/13 19:09:40;;;;;;;41.28;17.00;;;12.60;99.90;;;;;;8256949;28;20218;-81
2022/10/13 19:13:41;;;;;;;36.40;20.77;;;12.60;99.90;;;;;;8278080;28;20410;-79
2022/10/13 19:17:42;;;;;;;36.70;21.13;;;12.80;99.90;;;;;;8251416;28;20052;-81
2022/10/13 19:21:42;;;;;;;33.40;19.58;;;12.90;99.90;;;;;;8248862;28;20664;-82
2022/10/13 19:25:43;;;;;;;29.52;18.48;;;12.80;99.90;;;;;;8250037;28;20050;-82
2022/10/13 19:29:44;;;;;;;27.00;17.27;;;12.90;99.90;;;;;;8266735;28;20022;-81
2022/10/13 19:33:46;;;;;;;24.58;15.85;;;12.70;99.90;;;;;;8252817;28;20478;-82
2022/10/13 19:37:46;;;;;;;27.45;15.80;;;12.60;99.90;;;;;;8252584;28;20029;-82
2022/10/13 19:41:49;;;;;;;32.30;17.85;;;12.50;99.90;;;;;;8251273;28;20045;-82
2022/10/13 19:45:54;;;;;;;32.38;19.75;;;12.50;99.90;;;;;;8268147;28;20509;-80
2022/10/13 19:49:55;;;;;;;37.20;18.92;;;12.50;99.90;;;;;;8245953;28;20445;-80
2022/10/13 19:53:56;;;;;;;33.55;19.92;;;12.80;99.90;;;;;;8250212;28;20054;-78
2022/10/13 19:57:56;;;;;;;37.08;23.23;;;12.80;99.90;;;;;;8252183;28;20486;-81
2022/10/13 20:01:57;;;;;;;39.45;22.00;;;12.80;99.90;;;;;;8256252;28;20034;-80
2022/10/13 20:05:57;;;;;;;46.28;22.08;;;12.60;99.90;;;;;;8276296;28;20113;-80
2022/10/13 20:09:58;;;;;;;35.03;19.63;;;12.70;99.90;;;;;;8274787;28;20474;-81
2022/10/13 20:13:58;;;;;;;34.63;19.27;;;12.70;99.90;;;;;;8254940;28;20489;-82
2022/10/13 20:17:59;;;;;;;34.60;18.58;;;12.60;99.90;;;;;;8266093;28;20041;-81
2022/10/13 20:22:00;;;;;;;30.95;18.35;;;12.50;99.90;;;;;;8268937;28;20030;-82
2022/10/13 20:26:06;;;;;;;32.00;17.92;;;12.40;99.90;;;;;;8269082;28;20026;-82
2022/10/13 20:30:07;;;;;;;44.80;22.30;;;12.50;99.90;;;;;;8281779;28;20014;-82
2022/10/13 20:34:09;;;;;;;48.97;23.65;;;12.50;99.90;;;;;;8290807;28;20030;-82
2022/10/13 20:38:10;;;;;;;39.55;20.27;;;12.40;99.90;;;;;;8248299;28;20026;-82
2022/10/13 20:42:11;;;;;;;38.40;19.95;;;12.60;99.90;;;;;;8293492;28;20096;-82
2022/10/13 20:46:12;;;;;;;43.75;22.20;;;12.60;99.90;;;;;;8280978;28;20022;-82